Time;durP1;ratioP1;P1;durP2;ratioP2;P2;SDS_P1;SDS_P2;PMS_P1;PMS_P2;Temp;Humidity;BMP_temperature;BMP_pressure;BME280_temperature;BME280_humidity;BME280_pressure;Samples;Min_cycle;Max_cycle;Signal;HPM_P1;HPM_P2
2023/12/22 00:01:41;;;;;;;;;;;5.60;99.90;;;;;;4934275;28;20065;-57
2023/12/22 00:04:06;;;;;;;;;;;5.70;99.90;;;;;;4936851;28;19923;-57
2023/12/22 00:06:32;;;;;;;;;;;5.70;99.90;;;;;;4918050;28;20049;-57
2023/12/22 00:08:58;;;;;;;;;;;5.70;99.90;;;;;;4936355;28;19936;-56
2023/12/22 00:11:23;;;;;;;;;;;5.70;99.90;;;;;;4939353;28;19950;-55
2023/12/22 00:13:49;;;;;;;;;;;5.70;99.90;;;;;;4936846;28;19926;-56
2023/12/22 00:16:15;;;;;;;;;;;5.70;99.90;;;;;;4936884;28;20369;-57
2023/12/22 00:18:40;;;;;;;;;;;5.90;99.90;;;;;;4939830;28;20289;-57
2023/12/22 00:21:09;;;;;;;;;;;5.70;99.90;;;;;;4936672;28;19926;-56
2023/12/22 00:23:35;;;;;;;;;;;5.60;99.90;;;;;;4939365;28;19933;-57
2023/12/22 00:26:01;;;;;;;;;;;5.50;99.90;;;;;;4936278;28;19922;-57
2023/12/22 00:28:27;;;;;;;;;;;5.50;99.90;;;;;;4913334;28;19930;-57
2023/12/22 00:30:52;;;;;;;;;;;5.50;99.90;;;;;;4911064;28;19926;-57
2023/12/22 00:33:18;;;;;;;;;;;5.50;99.90;;;;;;4932375;28;19926;-57
2023/12/22 00:35:43;;;;;;;;;;;5.50;99.90;;;;;;4935980;28;19972;-57
2023/12/22 00:38:10;;;;;;;;;;;5.50;99.90;;;;;;4933206;28;20400;-57
2023/12/22 00:40:35;;;;;;;;;;;5.50;99.90;;;;;;4932004;28;19990;-58
2023/12/22 00:43:01;;;;;;;;;;;5.50;99.90;;;;;;4929623;28;19965;-56
2023/12/22 00:45:27;;;;;;;;;;;5.30;99.90;;;;;;4917185;28;19934;-56
2023/12/22 00:47:52;;;;;;;;;;;5.30;99.90;;;;;;4938899;28;19929;-56
2023/12/22 00:50:18;;;;;;;;;;;5.30;99.90;;;;;;4931823;28;20293;-57
2023/12/22 00:52:44;;;;;;;;;;;5.20;99.90;;;;;;4935022;28;20397;-57
2023/12/22 00:55:09;;;;;;;;;;;5.30;99.90;;;;;;4935879;28;19929;-57
2023/12/22 00:57:35;;;;;;;;;;;5.30;99.90;;;;;;4934640;28;19929;-57
2023/12/22 01:00:00;;;;;;;;;;;5.30;99.90;;;;;;4934475;28;20826;-56
2023/12/22 01:02:26;;;;;;;;;;;5.30;99.90;;;;;;4933471;28;19929;-58
2023/12/22 01:04:52;;;;;;;;;;;5.20;99.90;;;;;;4927844;28;20474;-57
2023/12/22 01:07:19;;;;;;;;;;;5.20;99.90;;;;;;4928845;28;20046;-56
2023/12/22 01:09:44;;;;;;;;;;;5.20;99.90;;;;;;4931298;28;20384;-57
2023/12/22 01:12:10;;;;;;;;;;;5.10;99.90;;;;;;4934794;28;19923;-56
2023/12/22 01:14:36;;;;;;;;;;;5.20;99.90;;;;;;4936942;28;20377;-57
2023/12/22 01:17:01;;;;;;;;;;;5.20;99.90;;;;;;4920550;28;20033;-56
2023/12/22 01:19:27;;;;;;;;;;;5.20;99.90;;;;;;4931771;28;19918;-56
2023/12/22 01:21:53;;;;;;;;;;;5.20;99.90;;;;;;4935080;28;20592;-56
2023/12/22 01:24:18;;;;;;;;;;;5.30;99.90;;;;;;4957306;28;19925;-57
2023/12/22 01:26:44;;;;;;;;;;;5.30;99.90;;;;;;4954645;28;20034;-58
2023/12/22 01:29:10;;;;;;;;;;;5.30;99.90;;;;;;4954254;28;20332;-57
2023/12/22 01:31:35;;;;;;;;;;;5.40;99.90;;;;;;4955284;28;20264;-56
2023/12/22 01:34:01;;;;;;;;;;;5.40;99.90;;;;;;4956924;28;20196;-58
2023/12/22 01:36:26;;;;;;;;;;;5.40;99.90;;;;;;4954188;28;20313;-57
2023/12/22 01:38:52;;;;;;;;;;;5.40;99.90;;;;;;4955334;28;19930;-54
2023/12/22 01:41:17;;;;;;;;;;;5.50;99.90;;;;;;4936789;28;19922;-57
2023/12/22 01:43:43;;;;;;;;;;;5.50;99.90;;;;;;4942833;28;20012;-56
2023/12/22 01:46:09;;;;;;;;;;;5.50;99.90;;;;;;4952233;28;19932;-57
2023/12/22 01:48:35;;;;;;;;;;;5.60;99.90;;;;;;4958552;28;20472;-57
2023/12/22 01:51:01;;;;;;;;;;;5.50;99.90;;;;;;4958358;28;19921;-56
2023/12/22 01:53:27;;;;;;;;;;;5.50;99.90;;;;;;4958672;28;19929;-57
2023/12/22 01:55:54;;;;;;;;;;;5.40;99.90;;;;;;4959194;28;20372;-57
2023/12/22 01:58:20;;;;;;;;;;;5.30;99.90;;;;;;4958989;28;20324;-55
2023/12/22 02:00:46;;;;;;;;;;;5.20;99.90;;;;;;4952364;28;19972;-57
2023/12/22 02:03:12;;;;;;;;;;;5.20;99.90;;;;;;4958895;28;19926;-53
2023/12/22 02:05:38;;;;;;;;;;;5.20;99.90;;;;;;4960467;28;19925;-57
2023/12/22 02:08:03;;;;;;;;;;;5.20;99.90;;;;;;4962284;28;19929;-57
2023/12/22 02:10:29;;;;;;;;;;;5.20;99.90;;;;;;4956866;28;20333;-57
2023/12/22 02:12:55;;;;;;;;;;;5.20;99.90;;;;;;4945481;28;19921;-58
2023/12/22 02:15:20;;;;;;;;;;;5.30;99.90;;;;;;4946064;28;19929;-57
2023/12/22 02:18:02;;;;;;;;;;;5.20;99.90;;;;;;4946765;28;19922;-57
2023/12/22 02:20:28;;;;;;;;;;;5.40;99.90;;;;;;4960629;28;20381;-57
2023/12/22 02:22:54;;;;;;;;;;;5.40;99.90;;;;;;4962859;28;19984;-57
2023/12/22 02:25:20;;;;;;;;;;;5.50;99.90;;;;;;4952057;28;19933;-58
2023/12/22 02:27:49;;;;;;;;;;;5.30;99.90;;;;;;4959720;28;19928;-57
2023/12/22 02:30:34;;;;;;;;;;;5.20;99.90;;;;;;4940884;28;19921;-57
2023/12/22 02:33:01;;;;;;;;;;;5.20;99.90;;;;;;4959321;28;20499;-56
2023/12/22 02:35:28;;;;;;;;;;;5.10;99.90;;;;;;4934320;28;19936;-57
2023/12/22 02:37:55;;;;;;;;;;;5.10;99.90;;;;;;4959826;28;19926;-57
2023/12/22 02:40:21;;;;;;;;;;;5.00;99.90;;;;;;4957750;28;20277;-57
2023/12/22 02:42:47;;;;;;;;;;;5.00;99.90;;;;;;4960888;28;19929;-56
2023/12/22 02:45:13;;;;;;;;;;;5.00;99.90;;;;;;4935075;28;19993;-57
2023/12/22 02:47:39;;;;;;;;;;;5.00;99.90;;;;;;4962784;28;19928;-55
2023/12/22 02:50:05;;;;;;;;;;;5.00;99.90;;;;;;4930614;28;20392;-57
2023/12/22 02:52:32;;;;;;;;;;;5.10;99.90;;;;;;4957680;28;19926;-56
2023/12/22 02:54:58;;;;;;;;;;;5.20;99.90;;;;;;4955171;28;19932;-55
2023/12/22 02:57:23;;;;;;;;;;;5.20;99.90;;;;;;4957855;28;20358;-58
2023/12/22 02:59:49;;;;;;;;;;;5.30;99.90;;;;;;4939636;28;19926;-57
2023/12/22 03:02:14;;;;;;;;;;;5.50;99.90;;;;;;4957658;28;19928;-57
2023/12/22 03:04:40;;;;;;;;;;;5.50;99.90;;;;;;4953656;28;19922;-57
2023/12/22 03:07:06;;;;;;;;;;;5.60;99.90;;;;;;4959162;28;21232;-57
2023/12/22 03:09:32;;;;;;;;;;;5.40;99.90;;;;;;4955881;28;20316;-57
2023/12/22 03:12:01;;;;;;;;;;;5.10;99.90;;;;;;4962031;28;20365;-57
2023/12/22 03:14:30;;;;;;;;;;;4.90;99.90;;;;;;4952395;28;19926;-56
2023/12/22 03:16:56;;;;;;;;;;;4.70;99.90;;;;;;4961581;28;19933;-57
2023/12/22 03:19:22;;;;;;;;;;;4.60;99.90;;;;;;4936704;28;19926;-57
2023/12/22 03:21:48;;;;;;;;;;;4.50;99.90;;;;;;4956157;28;20020;-56
2023/12/22 03:24:14;;;;;;;;;;;4.40;99.90;;;;;;4958953;28;19978;-57
2023/12/22 03:26:39;;;;;;;;;;;4.30;99.90;;;;;;4955202;28;20353;-56
2023/12/22 03:29:05;;;;;;;;;;;4.30;99.90;;;;;;4954474;28;19981;-57
2023/12/22 03:31:30;;;;;;;;;;;4.30;99.90;;;;;;4953584;28;19929;-57
2023/12/22 03:33:56;;;;;;;;;;;4.30;99.90;;;;;;4954957;28;19925;-57
2023/12/22 03:36:22;;;;;;;;;;;4.50;99.90;;;;;;4953033;28;19926;-57
2023/12/22 03:38:47;;;;;;;;;;;4.50;99.90;;;;;;4953507;28;20549;-57
2023/12/22 03:41:13;;;;;;;;;;;4.60;99.90;;;;;;4951490;28;20005;-57
2023/12/22 03:43:38;;;;;;;;;;;4.70;99.90;;;;;;4938633;28;20389;-58
2023/12/22 03:46:04;;;;;;;;;;;4.80;99.90;;;;;;4954042;28;20401;-56
2023/12/22 03:48:30;;;;;;;;;;;4.80;99.90;;;;;;4961238;28;19957;-58
2023/12/22 03:50:55;;;;;;;;;;;4.90;99.90;;;;;;4939938;28;19925;-57
2023/12/22 03:53:21;;;;;;;;;;;4.90;99.90;;;;;;4943169;28;19929;-57
2023/12/22 03:55:46;;;;;;;;;;;5.00;99.90;;;;;;4957138;28;19969;-57
2023/12/22 03:58:12;;;;;;;;;;;5.10;99.90;;;;;;4955155;28;19926;-57
2023/12/22 04:00:37;;;;;;;;;;;5.20;99.90;;;;;;4941463;28;20060;-57
2023/12/22 04:03:03;;;;;;;;;;;5.20;99.90;;;;;;4962528;28;20557;-56
2023/12/22 04:05:29;;;;;;;;;;;5.20;99.90;;;;;;4956472;28;19989;-57
2023/12/22 04:07:55;;;;;;;;;;;5.30;99.90;;;;;;4952856;28;20009;-57
2023/12/22 04:10:21;;;;;;;;;;;5.30;99.90;;;;;;4957193;28;20349;-57
2023/12/22 04:12:46;;;;;;;;;;;5.30;99.90;;;;;;4961220;28;19928;-57
2023/12/22 04:15:12;;;;;;;;;;;5.30;99.90;;;;;;4956365;28;20274;-56
2023/12/22 04:17:38;;;;;;;;;;;5.40;99.90;;;;;;4938594;28;19957;-57
2023/12/22 04:20:05;;;;;;;;;;;5.40;99.90;;;;;;4938790;28;20072;-56
2023/12/22 04:22:30;;;;;;;;;;;5.40;99.90;;;;;;4958514;28;19930;-57
2023/12/22 04:24:56;;;;;;;;;;;5.50;99.90;;;;;;4956849;28;19930;-57
2023/12/22 04:27:22;;;;;;;;;;;5.50;99.90;;;;;;4961813;28;19984;-57
2023/12/22 04:29:47;;;;;;;;;;;5.60;99.90;;;;;;4956634;28;19933;-57
2023/12/22 04:32:13;;;;;;;;;;;5.60;99.90;;;;;;4959255;28;20008;-57
2023/12/22 04:34:38;;;;;;;;;;;5.60;99.90;;;;;;4954171;28;19928;-57
2023/12/22 04:37:04;;;;;;;;;;;5.70;99.90;;;;;;4957275;28;20390;-57
2023/12/22 04:39:29;;;;;;;;;;;5.70;99.90;;;;;;4959631;28;19929;-56
2023/12/22 04:41:55;;;;;;;;;;;5.70;99.90;;;;;;4954586;28;22165;-57
2023/12/22 04:44:20;;;;;;;;;;;5.70;99.90;;;;;;4954353;28;19929;-57
2023/12/22 04:46:46;;;;;;;;;;;5.70;99.90;;;;;;4942305;28;19957;-57
2023/12/22 04:49:12;;;;;;;;;;;5.70;99.90;;;;;;4957384;28;20031;-57
2023/12/22 04:51:37;;;;;;;;;;;5.80;99.90;;;;;;4939634;28;20009;-56
2023/12/22 04:54:03;;;;;;;;;;;5.80;99.90;;;;;;4937702;28;20024;-57
2023/12/22 04:56:28;;;;;;;;;;;5.80;99.90;;;;;;4945651;28;19922;-57
2023/12/22 04:58:54;;;;;;;;;;;5.80;99.90;;;;;;4964936;28;19922;-57
2023/12/22 05:01:20;;;;;;;;;;;5.90;99.90;;;;;;4964257;28;20431;-57
2023/12/22 05:03:46;;;;;;;;;;;5.90;99.90;;;;;;4963657;28;20005;-57
2023/12/22 05:06:11;;;;;;;;;;;6.00;99.90;;;;;;4966224;28;20521;-57
2023/12/22 05:08:37;;;;;;;;;;;6.00;99.90;;;;;;4937305;28;19922;-58
2023/12/22 05:11:03;;;;;;;;;;;6.00;99.90;;;;;;4940931;28;19921;-58
2023/12/22 05:13:28;;;;;;;;;;;6.10;99.90;;;;;;4957571;28;20011;-57
2023/12/22 05:15:54;;;;;;;;;;;6.20;99.90;;;;;;4960693;28;19928;-58
2023/12/22 05:18:20;;;;;;;;;;;6.20;99.90;;;;;;4962156;28;19922;-56
2023/12/22 05:20:46;;;;;;;;;;;6.20;99.90;;;;;;4958103;28;19960;-57
2023/12/22 05:23:11;;;;;;;;;;;6.20;99.90;;;;;;4958944;28;19922;-58
2023/12/22 05:25:37;;;;;;;;;;;6.10;99.90;;;;;;4960474;28;19925;-57
2023/12/22 05:28:03;;;;;;;;;;;6.10;99.90;;;;;;4943560;28;21098;-55
2023/12/22 05:30:28;;;;;;;;;;;6.20;99.90;;;;;;4920968;28;19937;-57
2023/12/22 05:32:54;;;;;;;;;;;6.10;99.90;;;;;;4953145;28;19980;-56
2023/12/22 05:35:20;;;;;;;;;;;6.10;99.90;;;;;;4961794;28;19929;-58
2023/12/22 05:37:47;;;;;;;;;;;6.10;99.90;;;;;;4941953;28;20362;-57
2023/12/22 05:40:13;;;;;;;;;;;6.10;99.90;;;;;;4964349;28;20294;-57
2023/12/22 05:42:39;;;;;;;;;;;6.10;99.90;;;;;;4937265;28;19922;-57
2023/12/22 05:45:06;;;;;;;;;;;6.10;99.90;;;;;;4959685;28;20008;-56
2023/12/22 05:47:32;;;;;;;;;;;6.20;99.90;;;;;;4950900;28;19926;-58
2023/12/22 05:49:57;;;;;;;;;;;6.20;99.90;;;;;;4963380;28;19922;-57
2023/12/22 05:52:23;;;;;;;;;;;6.20;99.90;;;;;;4946827;28;19922;-58
2023/12/22 05:54:48;;;;;;;;;;;6.20;99.90;;;;;;4965424;28;20294;-56
2023/12/22 05:57:14;;;;;;;;;;;6.20;99.90;;;;;;4959019;28;20419;-57
2023/12/22 05:59:40;;;;;;;;;;;6.10;99.90;;;;;;4939306;28;19997;-56
2023/12/22 06:02:05;;;;;;;;;;;6.10;99.90;;;;;;4940096;28;19922;-57
2023/12/22 06:04:31;;;;;;;;;;;6.20;99.90;;;;;;4957319;28;20433;-56
2023/12/22 06:06:56;;;;;;;;;;;6.20;99.90;;;;;;4944564;28;19926;-56
2023/12/22 06:09:22;;;;;;;;;;;6.20;99.90;;;;;;4945463;28;20340;-56
2023/12/22 06:11:48;;;;;;;;;;;6.20;99.90;;;;;;4957378;28;19922;-55
2023/12/22 06:14:14;;;;;;;;;;;6.20;99.90;;;;;;4961781;28;19996;-56
2023/12/22 06:16:40;;;;;;;;;;;6.20;99.90;;;;;;4952174;28;20004;-57
2023/12/22 06:19:05;;;;;;;;;;;6.20;99.90;;;;;;4939742;28;19921;-56
2023/12/22 06:21:31;;;;;;;;;;;6.20;99.90;;;;;;4963461;28;20357;-57
2023/12/22 06:23:56;;;;;;;;;;;6.20;99.90;;;;;;4951722;28;19953;-57
2023/12/22 06:26:23;;;;;;;;;;;6.10;99.90;;;;;;4942266;28;19926;-55
2023/12/22 06:28:49;;;;;;;;;;;6.10;99.90;;;;;;4942377;28;20071;-56
2023/12/22 06:31:18;;;;;;;;;;;6.20;99.90;;;;;;4950913;28;19922;-56
2023/12/22 06:33:44;;;;;;;;;;;6.20;99.90;;;;;;4954771;28;19926;-57
2023/12/22 06:36:22;;;;;;;;;;;6.20;99.90;;;;;;4958676;28;19929;-58
2023/12/22 06:38:48;;;;;;;;;;;6.20;99.90;;;;;;4941392;28;19930;-55
2023/12/22 06:41:24;;;;;;;;;;;6.20;99.90;;;;;;4961726;28;20039;-57
2023/12/22 06:43:50;;;;;;;;;;;6.20;99.90;;;;;;4961112;28;20190;-56
2023/12/22 06:46:20;;;;;;;;;;;6.20;99.90;;;;;;4958262;28;19943;-58
2023/12/22 06:48:46;;;;;;;;;;;6.10;99.90;;;;;;4962106;28;19929;-56
2023/12/22 06:51:26;;;;;;;;;;;5.90;99.90;;;;;;4956400;28;19925;-56
2023/12/22 06:53:51;;;;;;;;;;;5.70;99.90;;;;;;4955369;28;20437;-56
2023/12/22 06:56:18;;;;;;;;;;;5.60;99.90;;;;;;4961552;28;19922;-56
2023/12/22 06:58:43;;;;;;;;;;;5.50;99.90;;;;;;4948236;28;20548;-58
2023/12/22 07:01:09;;;;;;;;;;;5.50;99.90;;;;;;4941411;28;19928;-54
2023/12/22 07:03:36;;;;;;;;;;;5.40;99.90;;;;;;4959945;28;20331;-56
2023/12/22 07:06:02;;;;;;;;;;;5.50;99.90;;;;;;4953848;28;19973;-58
2023/12/22 07:08:28;;;;;;;;;;;5.60;99.90;;;;;;4924142;28;19918;-57
2023/12/22 07:10:53;;;;;;;;;;;5.60;99.90;;;;;;4941691;28;20384;-59
2023/12/22 07:13:19;;;;;;;;;;;5.70;99.90;;;;;;4950598;28;20521;-56
2023/12/22 07:15:44;;;;;;;;;;;5.70;99.90;;;;;;4957776;28;19922;-56
2023/12/22 07:18:10;;;;;;;;;;;5.80;99.90;;;;;;4963970;28;19925;-59
2023/12/22 07:20:35;;;;;;;;;;;5.80;99.90;;;;;;4957721;28;19918;-56
2023/12/22 07:23:01;;;;;;;;;;;5.90;99.90;;;;;;4936386;28;20506;-56
2023/12/22 07:25:27;;;;;;;;;;;5.90;99.90;;;;;;4943092;28;20371;-57
2023/12/22 07:27:52;;;;;;;;;;;5.90;99.90;;;;;;4961059;28;19926;-57
2023/12/22 07:30:18;;;;;;;;;;;5.90;99.90;;;;;;4955793;28;19922;-58
2023/12/22 07:32:47;;;;;;;;;;;5.90;99.90;;;;;;4958258;28;20293;-58
2023/12/22 07:35:12;;;;;;;;;;;5.90;99.90;;;;;;4920778;28;19925;-58
2023/12/22 07:37:38;;;;;;;;;;;5.80;99.90;;;;;;4955385;28;20043;-56
2023/12/22 07:40:04;;;;;;;;;;;5.80;99.90;;;;;;4956909;28;19929;-56
2023/12/22 07:42:30;;;;;;;;;;;5.70;99.90;;;;;;4955551;28;19979;-56
2023/12/22 07:44:55;;;;;;;;;;;5.70;99.90;;;;;;4940820;28;20016;-56
2023/12/22 07:47:21;;;;;;;;;;;5.70;99.90;;;;;;4953336;28;20898;-58
2023/12/22 07:49:49;;;;;;;;;;;5.60;99.90;;;;;;4955337;28;19921;-57
2023/12/22 07:52:15;;;;;;;;;;;5.60;99.90;;;;;;4952270;28;19980;-56
2023/12/22 07:54:40;;;;;;;;;;;5.60;99.90;;;;;;4955986;28;19973;-56
2023/12/22 07:57:06;;;;;;;;;;;5.60;99.90;;;;;;4953948;28;19922;-57
2023/12/22 07:59:32;;;;;;;;;;;5.60;99.90;;;;;;4952312;28;20293;-56
2023/12/22 08:01:57;;;;;;;;;;;5.60;99.90;;;;;;4940090;28;20489;-57
2023/12/22 08:04:23;;;;;;;;;;;5.70;99.90;;;;;;4955970;28;19928;-56
2023/12/22 08:06:48;;;;;;;;;;;5.70;99.90;;;;;;4958364;28;19930;-58
2023/12/22 08:09:14;;;;;;;;;;;5.80;99.90;;;;;;4953031;28;20001;-58
2023/12/22 08:11:39;;;;;;;;;;;5.90;99.90;;;;;;4951066;28;19921;-58
2023/12/22 08:14:06;;;;;;;;;;;6.00;99.90;;;;;;4952124;28;19965;-58
2023/12/22 08:16:32;;;;;;;;;;;6.00;99.90;;;;;;4954811;28;19949;-57
2023/12/22 08:18:58;;;;;;;;;;;6.00;99.90;;;;;;4951319;28;19929;-58
2023/12/22 08:21:23;;;;;;;;;;;6.10;99.90;;;;;;4950426;28;19993;-58
2023/12/22 08:23:49;;;;;;;;;;;6.10;99.90;;;;;;4947090;28;19925;-56
2023/12/22 08:26:17;;;;;;;;;;;6.10;99.90;;;;;;4952286;28;19977;-57
2023/12/22 08:28:42;;;;;;;;;;;6.10;99.90;;;;;;4949801;28;20567;-56
2023/12/22 08:31:08;;;;;;;;;;;6.20;99.90;;;;;;4938075;28;20451;-57
2023/12/22 08:33:33;;;;;;;;;;;6.20;99.90;;;;;;4954615;28;19929;-57
2023/12/22 08:35:59;;;;;;;;;;;6.20;99.90;;;;;;4952464;28;19922;-59
2023/12/22 08:38:26;;;;;;;;;;;6.20;99.90;;;;;;4951960;28;20562;-56
2023/12/22 08:40:52;;;;;;;;;;;6.20;99.90;;;;;;4954743;28;20029;-57
2023/12/22 08:43:17;;;;;;;;;;;6.20;99.90;;;;;;4960498;28;19921;-58
2023/12/22 08:45:43;;;;;;;;;;;6.20;99.90;;;;;;4958944;28;19926;-57
2023/12/22 08:48:08;;;;;;;;;;;6.20;99.90;;;;;;4960930;28;19996;-56
2023/12/22 08:50:34;;;;;;;;;;;6.30;99.90;;;;;;4959785;28;19926;-58
2023/12/22 08:53:00;;;;;;;;;;;6.20;99.90;;;;;;4953824;28;20113;-57
2023/12/22 08:55:25;;;;;;;;;;;6.30;99.90;;;;;;4955151;28;20384;-57
2023/12/22 08:57:51;;;;;;;;;;;6.20;99.90;;;;;;4957074;28;19925;-57
2023/12/22 09:00:17;;;;;;;;;;;6.20;99.90;;;;;;4967236;28;19936;-56
2023/12/22 09:02:42;;;;;;;;;;;6.20;99.90;;;;;;4949573;28;19929;-57
2023/12/22 09:05:08;;;;;;;;;;;6.20;99.90;;;;;;4968266;28;20012;-57
2023/12/22 09:07:34;;;;;;;;;;;6.20;99.90;;;;;;4948985;28;20000;-58
2023/12/22 09:09:59;;;;;;;;;;;6.20;99.90;;;;;;4968811;28;20550;-57
2023/12/22 09:12:25;;;;;;;;;;;6.20;99.90;;;;;;4964303;28;19954;-57
2023/12/22 09:14:51;;;;;;;;;;;6.20;99.90;;;;;;4964940;28;19926;-57
2023/12/22 09:17:16;;;;;;;;;;;6.20;99.90;;;;;;4965226;28;19928;-58
2023/12/22 09:19:42;;;;;;;;;;;6.20;99.90;;;;;;4963246;28;19928;-56
2023/12/22 09:22:08;;;;;;;;;;;6.30;99.90;;;;;;4967345;28;20005;-58
2023/12/22 09:24:34;;;;;;;;;;;6.30;99.90;;;;;;4953894;28;20028;-58
2023/12/22 09:27:02;;;;;;;;;;;6.30;99.90;;;;;;4944782;28;19922;-57
2023/12/22 09:29:35;;;;;;;;;;;6.30;99.90;;;;;;4941801;28;19973;-58
2023/12/22 09:32:01;;;;;;;;;;;6.30;99.90;;;;;;4943595;28;19968;-58
2023/12/22 09:34:29;;;;;;;;;;;6.30;99.90;;;;;;4939743;28;20060;-58
2023/12/22 09:36:55;;;;;;;;;;;6.30;99.90;;;;;;4942080;28;19927;-57
2023/12/22 09:39:20;;;;;;;;;;;6.40;99.90;;;;;;4941494;28;19972;-58
2023/12/22 09:41:48;;;;;;;;;;;6.40;99.90;;;;;;4940526;28;19928;-56
2023/12/22 09:44:17;;;;;;;;;;;6.40;99.90;;;;;;4922896;28;19933;-57
2023/12/22 09:46:43;;;;;;;;;;;6.40;99.90;;;;;;4924602;28;19926;-57
2023/12/22 09:49:08;;;;;;;;;;;6.50;99.90;;;;;;4939396;28;20504;-58
2023/12/22 09:51:34;;;;;;;;;;;6.40;99.90;;;;;;4932012;28;19922;-57
2023/12/22 09:54:01;;;;;;;;;;;6.50;99.90;;;;;;4936653;28;19922;-58
2023/12/22 09:56:27;;;;;;;;;;;6.50;99.90;;;;;;4938643;28;19926;-57
2023/12/22 09:58:53;;;;;;;;;;;6.60;99.90;;;;;;4944189;28;19922;-58
2023/12/22 10:01:22;;;;;;;;;;;6.60;99.90;;;;;;4929629;28;20037;-57
2023/12/22 10:03:47;;;;;;;;;;;6.60;99.90;;;;;;4940624;28;20460;-58
2023/12/22 10:06:13;;;;;;;;;;;6.60;99.90;;;;;;4942379;28;19938;-57
2023/12/22 10:08:39;;;;;;;;;;;6.70;99.90;;;;;;4927775;28;19922;-56
2023/12/22 10:11:05;;;;;;;;;;;6.70;99.90;;;;;;4946160;28;19922;-56
2023/12/22 10:13:33;;;;;;;;;;;6.70;99.90;;;;;;4911906;28;19930;-57
2023/12/22 10:15:59;;;;;;;;;;;6.80;99.90;;;;;;4946672;28;20013;-57
2023/12/22 10:18:24;;;;;;;;;;;6.80;99.90;;;;;;4941228;28;20757;-57
2023/12/22 10:20:50;;;;;;;;;;;6.80;99.90;;;;;;4938573;28;20262;-58
2023/12/22 10:23:15;;;;;;;;;;;6.80;99.90;;;;;;4940931;28;19922;-58
2023/12/22 10:25:41;;;;;;;;;;;6.80;99.90;;;;;;4929236;28;20680;-56
2023/12/22 10:28:09;;;;;;;;;;;6.80;99.90;;;;;;4948212;28;19929;-58
2023/12/22 10:30:36;;;;;;;;;;;6.90;99.90;;;;;;4945489;28;20432;-59
2023/12/22 10:33:03;;;;;;;;;;;6.90;99.90;;;;;;4949046;28;19926;-57
2023/12/22 10:35:29;;;;;;;;;;;6.90;99.90;;;;;;4927249;28;19922;-58
2023/12/22 10:37:55;;;;;;;;;;;6.90;99.90;;;;;;4947058;28;20352;-58
2023/12/22 10:40:22;;;;;;;;;;;6.90;99.90;;;;;;4943439;28;19929;-57
2023/12/22 10:42:51;;;;;;;;;;;6.90;99.90;;;;;;4927828;28;19922;-55
2023/12/22 10:45:18;;;;;;;;;;;7.00;99.90;;;;;;4946358;28;19922;-57
2023/12/22 10:47:43;;;;;;;;;;;6.90;99.90;;;;;;4948998;28;20381;-58
2023/12/22 10:50:11;;;;;;;;;;;7.00;99.90;;;;;;4947016;28;20021;-57
2023/12/22 10:52:37;;;;;;;;;;;7.00;99.90;;;;;;4952539;28;19927;-57
2023/12/22 10:55:03;;;;;;;;;;;7.00;99.90;;;;;;4951189;28;19929;-58
2023/12/22 10:57:28;;;;;;;;;;;7.00;99.90;;;;;;4948459;28;19929;-56
2023/12/22 10:59:56;;;;;;;;;;;7.10;99.90;;;;;;4947488;28;19942;-59
2023/12/22 11:02:22;;;;;;;;;;;7.10;99.90;;;;;;4943097;28;20388;-56
2023/12/22 11:05:00;;;;;;;;;;;7.10;99.90;;;;;;4950352;28;19929;-58
2023/12/22 11:07:27;;;;;;;;;;;7.10;99.90;;;;;;4949906;28;19926;-57
2023/12/22 11:09:55;;;;;;;;;;;7.10;99.90;;;;;;4947521;28;20297;-59
2023/12/22 11:12:21;;;;;;;;;;;7.10;99.90;;;;;;4948038;28;20490;-58
2023/12/22 11:14:51;;;;;;;;;;;7.10;99.90;;;;;;4948252;28;19932;-57
2023/12/22 11:17:19;;;;;;;;;;;7.20;99.90;;;;;;4945965;28;19957;-58
2023/12/22 11:19:45;;;;;;;;;;;7.20;99.90;;;;;;4942845;28;19996;-59
2023/12/22 11:22:12;;;;;;;;;;;7.20;99.90;;;;;;4923998;28;19928;-57
2023/12/22 11:24:38;;;;;;;;;;;7.20;99.90;;;;;;4938236;28;19925;-57
2023/12/22 11:27:04;;;;;;;;;;;7.20;99.90;;;;;;4963725;28;19930;-58
2023/12/22 11:29:30;;;;;;;;;;;7.30;99.90;;;;;;4963493;28;19933;-59
2023/12/22 11:31:57;;;;;;;;;;;7.30;99.90;;;;;;4966597;28;19929;-57
2023/12/22 11:34:24;;;;;;;;;;;7.30;99.90;;;;;;4944875;28;19926;-58
2023/12/22 11:36:50;;;;;;;;;;;7.30;99.90;;;;;;4945710;28;19928;-58
2023/12/22 11:39:16;;;;;;;;;;;7.30;99.90;;;;;;4963603;28;19921;-56
2023/12/22 11:41:43;;;;;;;;;;;7.30;99.90;;;;;;4963063;28;20418;-57
2023/12/22 11:44:09;;;;;;;;;;;7.30;99.90;;;;;;4962610;28;19922;-57
2023/12/22 11:46:34;;;;;;;;;;;7.30;99.90;;;;;;4966237;28;20065;-57
2023/12/22 11:49:00;;;;;;;;;;;7.30;99.90;;;;;;4965106;28;20377;-58
2023/12/22 11:51:30;;;;;;;;;;;7.40;99.90;;;;;;4963583;28;20487;-58
2023/12/22 11:53:56;;;;;;;;;;;7.40;99.90;;;;;;4963096;28;19921;-57
2023/12/22 11:56:24;;;;;;;;;;;7.40;99.90;;;;;;4963844;28;19922;-57
2023/12/22 11:58:52;;;;;;;;;;;7.40;99.90;;;;;;4964218;28;19922;-58
2023/12/22 12:01:18;;;;;;;;;;;7.40;99.90;;;;;;4934110;28;20368;-58
2023/12/22 12:03:51;;;;;;;;;;;7.40;99.90;;;;;;4949280;28;19925;-56
2023/12/22 12:06:29;;;;;;;;;;;7.40;99.90;;;;;;4934077;28;20012;-58
2023/12/22 12:08:58;;;;;;;;;;;7.40;99.90;;;;;;4957419;28;19952;-56
2023/12/22 12:11:44;;;;;;;;;;;7.40;99.90;;;;;;4960161;28;19922;-57
2023/12/22 12:14:13;;;;;;;;;;;7.40;99.90;;;;;;4928336;28;19922;-57
2023/12/22 12:16:40;;;;;;;;;;;7.40;99.90;;;;;;4963168;28;19921;-58
2023/12/22 12:19:09;;;;;;;;;;;7.40;99.90;;;;;;4942805;28;19960;-58
2023/12/22 12:21:35;;;;;;;;;;;7.40;99.90;;;;;;4958958;28;19918;-57
2023/12/22 12:24:00;;;;;;;;;;;7.50;99.90;;;;;;4957020;28;19988;-58
2023/12/22 12:26:27;;;;;;;;;;;7.40;99.90;;;;;;4932111;28;19929;-58
2023/12/22 12:28:53;;;;;;;;;;;7.50;99.90;;;;;;4936565;28;19933;-58
2023/12/22 12:31:19;;;;;;;;;;;7.40;99.90;;;;;;4958056;28;20020;-58
2023/12/22 12:33:45;;;;;;;;;;;7.50;99.90;;;;;;4939187;28;19921;-58
2023/12/22 12:36:11;;;;;;;;;;;7.50;99.90;;;;;;4961573;28;20342;-58
2023/12/22 12:38:37;;;;;;;;;;;7.40;99.90;;;;;;4961164;28;20475;-57
2023/12/22 12:41:04;;;;;;;;;;;7.40;99.90;;;;;;4961599;28;20356;-59
2023/12/22 12:43:29;;;;;;;;;;;7.40;99.90;;;;;;4942997;28;19948;-58
2023/12/22 12:45:55;;;;;;;;;;;7.40;99.90;;;;;;4942301;28;20768;-57
2023/12/22 12:48:21;;;;;;;;;;;7.40;99.90;;;;;;4962039;28;20004;-57
2023/12/22 12:50:46;;;;;;;;;;;7.40;99.90;;;;;;4961572;28;20060;-58
2023/12/22 12:53:12;;;;;;;;;;;7.40;99.90;;;;;;4943599;28;20382;-54
2023/12/22 12:55:37;;;;;;;;;;;7.40;99.90;;;;;;4964241;28;20459;-58
2023/12/22 12:58:03;;;;;;;;;;;7.40;99.90;;;;;;4939358;28;19929;-58
2023/12/22 13:00:30;;;;;;;;;;;7.40;99.90;;;;;;4954921;28;20309;-58
2023/12/22 13:02:56;;;;;;;;;;;7.40;99.90;;;;;;4944696;28;19926;-57
2023/12/22 13:05:25;;;;;;;;;;;7.40;99.90;;;;;;4963903;28;19981;-57
2023/12/22 13:07:50;;;;;;;;;;;7.40;99.90;;;;;;4961865;28;20336;-58
2023/12/22 13:10:34;;;;;;;;;;;7.30;99.90;;;;;;4963238;28;20102;-56
2023/12/22 13:13:00;;;;;;;;;;;7.30;99.90;;;;;;4961587;28;19921;-58
2023/12/22 13:15:26;;;;;;;;;;;7.30;99.90;;;;;;4961472;28;19929;-58
2023/12/22 13:17:52;;;;;;;;;;;7.30;99.90;;;;;;4957530;28;20565;-57
2023/12/22 13:20:17;;;;;;;;;;;7.30;99.90;;;;;;4959681;28;20402;-57
2023/12/22 13:22:44;;;;;;;;;;;7.20;99.90;;;;;;4961639;28;20270;-56
2023/12/22 13:25:10;;;;;;;;;;;7.20;99.90;;;;;;4961417;28;19926;-59
2023/12/22 13:27:45;;;;;;;;;;;7.20;99.90;;;;;;4941237;28;19926;-57
2023/12/22 13:30:11;;;;;;;;;;;7.20;99.90;;;;;;4960336;28;19928;-57
2023/12/22 13:32:37;;;;;;;;;;;7.20;99.90;;;;;;4960263;28;19921;-58
2023/12/22 13:35:03;;;;;;;;;;;7.10;99.90;;;;;;4963702;28;19926;-58
2023/12/22 13:37:30;;;;;;;;;;;7.10;99.90;;;;;;4959589;28;19933;-58
2023/12/22 13:39:57;;;;;;;;;;;7.10;99.90;;;;;;4959924;28;19921;-58
2023/12/22 13:42:24;;;;;;;;;;;7.00;99.90;;;;;;4958873;28;19921;-58
2023/12/22 13:44:50;;;;;;;;;;;7.00;99.90;;;;;;4961536;28;20393;-59
2023/12/22 13:47:16;;;;;;;;;;;6.90;99.90;;;;;;4946628;28;20319;-58
2023/12/22 13:49:43;;;;;;;;;;;6.90;99.90;;;;;;4942929;28;19969;-57
2023/12/22 13:52:08;;;;;;;;;;;6.90;99.90;;;;;;4960444;28;19968;-56
2023/12/22 13:54:34;;;;;;;;;;;6.90;99.90;;;;;;4942252;28;20013;-58
2023/12/22 13:57:00;;;;;;;;;;;6.90;99.90;;;;;;4959675;28;20289;-56
2023/12/22 13:59:33;;;;;;;;;;;6.80;99.90;;;;;;4958883;28;19929;-56
2023/12/22 14:01:58;;;;;;;;;;;6.80;99.90;;;;;;4943481;28;20389;-56
2023/12/22 14:04:24;;;;;;;;;;;6.80;99.90;;;;;;4963645;28;19929;-56
2023/12/22 14:06:50;;;;;;;;;;;6.80;99.90;;;;;;4963123;28;20012;-58
2023/12/22 14:09:19;;;;;;;;;;;6.80;99.90;;;;;;4945730;28;19928;-58
2023/12/22 14:11:44;;;;;;;;;;;6.80;99.90;;;;;;4965683;28;19925;-58
2023/12/22 14:14:11;;;;;;;;;;;6.80;99.90;;;;;;4966345;28;19929;-59
2023/12/22 14:16:37;;;;;;;;;;;6.80;99.90;;;;;;4966302;28;20396;-58
2023/12/22 14:19:03;;;;;;;;;;;6.70;99.90;;;;;;4965436;28;19921;-57
2023/12/22 14:21:28;;;;;;;;;;;6.70;99.90;;;;;;4963839;28;19926;-59
2023/12/22 14:23:54;;;;;;;;;;;6.80;99.90;;;;;;4960023;28;20170;-58
2023/12/22 14:26:20;;;;;;;;;;;6.70;99.90;;;;;;4967031;28;20292;-58